< < Back
Terminal Aerodrome Forecast


Current Version              Previous Versions:   1  2  3  4  5  6  7  8  9  

Terminal Aerodrome Forecast

148
FTUS44 KOHX 031155 AAA
TAFCSV
TAF AMD
KCSV 031155Z 0312/0412 31004KT 6SM BR OVC020
      TEMPO 0312/0313 4SM BR OVC007
     FM031500 30007KT P6SM OVC015
     FM031700 31009KT P6SM OVC035
     FM040000 30004KT P6SM BKN040=

Latest METAR

964
SAUS70 KWBC 031600 RRE
MTRCSV
METAR KCSV 031553Z AUTO 27008KT 10SM SCT026 BKN030 18/09 A2996 RMK AO2
SLP133 T01780094


USA.gov is the U.S. government's official web portal to all federal, state and local government web resources and services.